createdAt,value
2018-12-17T00:01:08.303Z,100.00
2018-12-17T00:03:37.644Z,100.00
2018-12-17T00:06:06.378Z,100.00
2018-12-17T00:08:35.614Z,100.00
2018-12-17T00:11:04.733Z,100.00
2018-12-17T00:13:33.669Z,100.00
2018-12-17T00:16:02.939Z,100.00
2018-12-17T00:18:32.205Z,100.00
2018-12-17T00:21:01.337Z,100.00
2018-12-17T00:23:30.383Z,100.00
2018-12-17T00:25:59.427Z,100.00
2018-12-17T00:28:28.187Z,100.00
2018-12-17T00:30:57.308Z,100.00
2018-12-17T00:33:26.402Z,100.00
2018-12-17T00:35:55.391Z,99.57
2018-12-17T00:38:24.620Z,99.58
2018-12-17T00:40:53.708Z,100.00
2018-12-17T00:43:22.996Z,100.00
2018-12-17T00:45:51.775Z,99.43
2018-12-17T00:48:21.013Z,98.78
2018-12-17T00:50:50.075Z,98.84
2018-12-17T00:53:18.769Z,99.97
2018-12-17T00:55:47.540Z,99.21
2018-12-17T00:58:16.550Z,99.55
2018-12-17T01:00:45.568Z,98.70
2018-12-17T01:03:14.373Z,99.37
2018-12-17T01:05:43.212Z,97.15
2018-12-17T01:08:12.473Z,97.91
2018-12-17T01:10:41.288Z,96.53
2018-12-17T01:13:10.299Z,96.53
2018-12-17T01:15:39.573Z,95.59
2018-12-17T01:18:08.724Z,95.54
2018-12-17T01:20:37.811Z,95.26
2018-12-17T01:23:06.680Z,95.25
2018-12-17T01:25:35.525Z,94.80
2018-12-17T01:28:04.762Z,95.76
2018-12-17T01:30:33.763Z,95.29
2018-12-17T01:33:02.573Z,94.56
2018-12-17T01:35:31.562Z,95.12
2018-12-17T01:38:00.431Z,95.52
2018-12-17T01:40:29.480Z,95.39
2018-12-17T01:42:58.409Z,96.04
2018-12-17T01:45:27.142Z,95.15
2018-12-17T01:47:55.831Z,95.39
2018-12-17T01:50:24.899Z,95.82
2018-12-17T01:52:53.938Z,96.84
2018-12-17T01:55:22.947Z,96.29
2018-12-17T01:57:51.978Z,95.55
2018-12-17T02:00:20.800Z,95.24
2018-12-17T02:02:49.856Z,94.85
2018-12-17T02:05:18.795Z,94.84
2018-12-17T02:07:47.885Z,95.85
2018-12-17T02:10:16.835Z,95.28
2018-12-17T02:12:45.733Z,93.74
2018-12-17T02:15:14.513Z,93.57
2018-12-17T02:17:43.398Z,94.41
2018-12-17T02:20:12.092Z,94.30
2018-12-17T02:22:41.199Z,94.84
2018-12-17T02:25:10.919Z,94.59
2018-12-17T02:27:39.759Z,94.89
2018-12-17T02:30:08.592Z,94.59
2018-12-17T02:32:37.286Z,95.34
2018-12-17T02:35:07.098Z,95.10
2018-12-17T02:37:35.766Z,95.53
2018-12-17T02:40:05.214Z,95.62
2018-12-17T02:42:34.112Z,95.82
2018-12-17T02:45:02.870Z,95.63
2018-12-17T02:47:31.581Z,96.44
2018-12-17T02:50:00.321Z,96.67
2018-12-17T02:52:29.062Z,95.22
2018-12-17T02:54:58.241Z,95.62
2018-12-17T02:57:27.417Z,96.39
2018-12-17T02:59:56.145Z,96.54
2018-12-17T03:02:25.226Z,95.86
2018-12-17T03:04:54.298Z,95.65
2018-12-17T03:07:23.464Z,96.53
2018-12-17T03:09:52.199Z,96.24
2018-12-17T03:12:21.127Z,96.62
2018-12-17T03:14:50.486Z,96.33
2018-12-17T03:17:19.452Z,95.29
2018-12-17T03:19:48.373Z,95.75
2018-12-17T03:22:17.552Z,94.90
2018-12-17T03:24:47.179Z,94.72
2018-12-17T03:27:16.156Z,95.25
2018-12-17T03:29:45.504Z,95.65
2018-12-17T03:32:14.665Z,94.33
2018-12-17T03:34:43.474Z,95.13
2018-12-17T03:37:12.232Z,94.87
2018-12-17T03:39:41.087Z,94.64
2018-12-17T03:42:10.379Z,94.48
2018-12-17T03:44:39.090Z,94.89
2018-12-17T03:47:08.579Z,94.80
2018-12-17T03:49:37.704Z,94.52
2018-12-17T03:52:06.362Z,94.72
2018-12-17T03:54:35.500Z,95.05
2018-12-17T03:57:04.584Z,94.25
2018-12-17T03:59:33.385Z,93.95
2018-12-17T04:02:02.405Z,93.79
2018-12-17T04:04:31.459Z,94.26
2018-12-17T04:07:00.641Z,94.29
2018-12-17T04:09:29.309Z,92.88
2018-12-17T04:11:58.519Z,92.96
2018-12-17T04:14:27.276Z,93.00
2018-12-17T04:16:56.253Z,92.12
2018-12-17T04:19:25.506Z,92.09
2018-12-17T04:21:54.701Z,92.04
2018-12-17T04:24:23.468Z,92.41
2018-12-17T04:26:52.502Z,91.97
2018-12-17T04:29:21.471Z,92.47
2018-12-17T04:31:50.244Z,93.11
2018-12-17T04:34:19.144Z,91.66
2018-12-17T04:36:48.030Z,91.72
2018-12-17T04:39:16.869Z,91.89
2018-12-17T04:41:45.969Z,91.45
2018-12-17T04:44:14.797Z,91.70
2018-12-17T04:46:43.557Z,92.14
2018-12-17T04:49:12.388Z,91.77
2018-12-17T04:51:41.155Z,91.72
2018-12-17T04:54:10.117Z,92.07
2018-12-17T04:56:38.814Z,92.91
2018-12-17T04:59:14.348Z,93.15
2018-12-17T05:01:38.663Z,92.22
2018-12-17T05:04:07.630Z,91.45
2018-12-17T05:06:36.715Z,91.88
2018-12-17T05:09:08.232Z,92.33
2018-12-17T05:11:36.953Z,91.76
2018-12-17T05:14:05.946Z,92.32
2018-12-17T05:16:34.992Z,91.35
2018-12-17T05:19:03.941Z,91.73
2018-12-17T05:21:32.658Z,91.67
2018-12-17T05:24:01.357Z,92.33
2018-12-17T05:26:30.093Z,91.61
2018-12-17T05:28:58.974Z,91.67
2018-12-17T05:31:27.715Z,91.42
2018-12-17T05:33:56.711Z,92.13
2018-12-17T05:36:25.434Z,91.90
2018-12-17T05:38:54.561Z,91.73
2018-12-17T05:41:23.284Z,91.41
2018-12-17T05:43:52.247Z,91.18
2018-12-17T05:46:21.259Z,91.18
2018-12-17T05:48:50.413Z,91.61
2018-12-17T05:51:19.185Z,91.98
2018-12-17T05:53:47.935Z,91.81
2018-12-17T05:56:17.108Z,92.21
2018-12-17T05:58:46.132Z,92.12
2018-12-17T06:01:14.932Z,92.51
2018-12-17T06:03:44.266Z,92.53
2018-12-17T06:06:13.246Z,92.54
2018-12-17T06:08:42.479Z,92.73
2018-12-17T06:11:11.488Z,92.86
2018-12-17T06:13:40.576Z,93.57
2018-12-17T06:16:09.556Z,93.52
2018-12-17T06:18:39.208Z,93.00
2018-12-17T06:21:08.126Z,93.47
2018-12-17T06:23:37.156Z,93.84
2018-12-17T06:26:05.989Z,94.00
2018-12-17T06:28:35.003Z,93.97
2018-12-17T06:31:04.130Z,93.68
2018-12-17T06:33:32.890Z,92.92
2018-12-17T06:36:01.692Z,93.61
2018-12-17T06:38:30.812Z,93.42
2018-12-17T06:40:59.497Z,93.09
2018-12-17T06:43:28.698Z,94.24
2018-12-17T06:45:57.691Z,92.97
2018-12-17T06:48:26.787Z,93.43
2018-12-17T06:50:56.265Z,93.58
2018-12-17T06:53:25.189Z,93.63
2018-12-17T06:55:54.166Z,93.66
2018-12-17T06:58:23.481Z,93.47
2018-12-17T07:00:52.181Z,93.80
2018-12-17T07:03:21.246Z,93.86
2018-12-17T07:05:50.269Z,93.93
2018-12-17T07:08:19.877Z,93.31
2018-12-17T07:10:49.223Z,92.76
2018-12-17T07:13:18.064Z,93.53
2018-12-17T07:15:46.847Z,93.05
2018-12-17T07:18:15.940Z,93.17
2018-12-17T07:20:44.771Z,91.58
2018-12-17T07:23:13.544Z,91.87
2018-12-17T07:25:42.610Z,91.17
2018-12-17T07:28:11.706Z,91.53
2018-12-17T07:30:40.725Z,91.09
2018-12-17T07:33:09.609Z,89.14
2018-12-17T07:35:38.456Z,90.08
2018-12-17T07:38:07.578Z,90.13
2018-12-17T07:40:36.785Z,91.23
2018-12-17T07:43:06.074Z,91.50
2018-12-17T07:45:34.835Z,92.22
2018-12-17T07:48:04.266Z,93.18
2018-12-17T07:50:33.257Z,93.68
2018-12-17T07:53:02.026Z,94.69
2018-12-17T07:55:31.154Z,94.04
2018-12-17T07:58:00.186Z,93.70
2018-12-17T08:00:29.288Z,94.97
2018-12-17T08:02:58.039Z,94.34
2018-12-17T08:05:27.742Z,93.67
2018-12-17T08:07:56.840Z,94.90
2018-12-17T08:10:27.078Z,93.86
2018-12-17T08:12:57.009Z,93.59
2018-12-17T08:15:26.949Z,94.62
2018-12-17T08:18:33.767Z,94.25
2018-12-17T08:21:03.042Z,93.55
2018-12-17T08:23:32.252Z,93.78
2018-12-17T08:26:01.131Z,94.38
2018-12-17T08:28:30.312Z,93.52
2018-12-17T08:30:59.557Z,94.85
2018-12-17T08:33:28.565Z,94.10
2018-12-17T08:35:57.750Z,93.47
2018-12-17T08:38:26.912Z,92.83
2018-12-17T08:40:55.940Z,91.42
2018-12-17T08:43:24.982Z,90.87
2018-12-17T08:45:54.028Z,92.64
2018-12-17T08:48:22.763Z,91.94
2018-12-17T08:50:51.682Z,92.49
2018-12-17T08:53:20.970Z,91.77
2018-12-17T08:55:49.806Z,91.86
2018-12-17T08:58:19.292Z,91.10
2018-12-17T09:00:48.093Z,90.79
2018-12-17T09:03:17.418Z,89.79
2018-12-17T09:05:46.393Z,89.23
2018-12-17T09:08:21.721Z,89.70
2018-12-17T09:10:50.819Z,90.74
2018-12-17T09:13:23.603Z,90.71
2018-12-17T09:15:52.953Z,90.59
2018-12-17T09:18:27.191Z,89.30
2018-12-17T09:20:56.218Z,89.11
2018-12-17T09:23:26.152Z,90.11
2018-12-17T09:25:54.915Z,88.75
2018-12-17T09:28:24.214Z,88.36
2018-12-17T09:30:53.179Z,88.10
2018-12-17T09:33:22.196Z,88.48
2018-12-17T09:35:51.402Z,87.73
2018-12-17T09:38:20.210Z,86.89
2018-12-17T09:40:48.971Z,87.70
2018-12-17T09:43:17.897Z,85.53
2018-12-17T09:45:46.749Z,85.50
2018-12-17T09:48:16.061Z,85.18
2018-12-17T09:50:45.042Z,84.41
2018-12-17T09:53:14.139Z,85.47
2018-12-17T09:55:43.153Z,85.42
2018-12-17T09:58:11.944Z,85.40
2018-12-17T10:00:40.704Z,84.83
2018-12-17T10:03:09.537Z,83.80
2018-12-17T10:05:38.721Z,84.44
2018-12-17T10:08:07.640Z,85.23
2018-12-17T10:10:36.518Z,85.57
2018-12-17T10:13:05.707Z,85.40
2018-12-17T10:15:34.874Z,85.87
2018-12-17T10:18:03.571Z,86.25
2018-12-17T10:20:32.761Z,86.31
2018-12-17T10:23:01.480Z,85.87
2018-12-17T10:25:30.982Z,85.25
2018-12-17T10:28:00.063Z,85.20
2018-12-17T10:30:32.480Z,85.58
2018-12-17T10:33:00.308Z,86.27
2018-12-17T10:35:29.157Z,85.50
2018-12-17T10:37:57.970Z,86.02
2018-12-17T10:40:27.165Z,86.36
2018-12-17T10:42:56.374Z,86.22
2018-12-17T10:45:25.512Z,85.96
2018-12-17T10:47:54.259Z,85.82
2018-12-17T10:50:23.358Z,83.59
2018-12-17T10:52:52.343Z,84.00
2018-12-17T10:55:21.352Z,84.26
2018-12-17T10:57:50.357Z,84.61
2018-12-17T11:00:24.795Z,84.49
2018-12-17T11:02:55.907Z,84.51
2018-12-17T11:05:24.951Z,85.39
2018-12-17T11:07:53.807Z,84.67
2018-12-17T11:10:22.578Z,84.46
2018-12-17T11:12:51.905Z,84.13
2018-12-17T11:15:20.857Z,84.32
2018-12-17T11:17:49.771Z,84.58
2018-12-17T11:20:18.767Z,86.07
2018-12-17T11:22:47.857Z,85.20
2018-12-17T11:25:16.852Z,85.00
2018-12-17T11:27:46.023Z,84.27
2018-12-17T11:30:14.922Z,84.48
2018-12-17T11:32:44.949Z,83.36
2018-12-17T11:35:14.359Z,83.72
2018-12-17T11:37:43.459Z,83.11
2018-12-17T11:40:12.641Z,82.80
2018-12-17T11:42:41.645Z,83.72
2018-12-17T11:45:10.646Z,84.40
2018-12-17T11:47:39.733Z,84.41
2018-12-17T11:50:09.216Z,83.13
2018-12-17T11:52:38.240Z,83.84
2018-12-17T11:55:07.360Z,84.88
2018-12-17T11:58:03.980Z,85.14
2018-12-17T12:00:33.011Z,84.45
2018-12-17T12:03:01.967Z,84.65
2018-12-17T12:05:30.690Z,83.86
2018-12-17T12:07:59.632Z,84.62
2018-12-17T12:10:28.860Z,85.06
2018-12-17T12:12:57.595Z,85.81
2018-12-17T12:15:26.723Z,85.44
2018-12-17T12:17:55.644Z,84.64
2018-12-17T12:20:24.842Z,84.98
2018-12-17T12:22:54.096Z,85.01
2018-12-17T12:25:22.941Z,85.34
2018-12-17T12:27:52.005Z,85.31
2018-12-17T12:30:20.745Z,86.58
2018-12-17T12:32:49.782Z,86.31
2018-12-17T12:35:18.570Z,85.89
2018-12-17T12:37:47.501Z,85.43
2018-12-17T12:40:16.657Z,85.56
2018-12-17T12:42:51.644Z,85.60
2018-12-17T12:45:16.881Z,86.15
2018-12-17T12:47:45.652Z,86.59
2018-12-17T12:50:14.587Z,86.48
2018-12-17T12:52:43.308Z,85.73
2018-12-17T12:55:12.464Z,85.66
2018-12-17T12:57:41.161Z,86.53
2018-12-17T13:00:13.495Z,86.71
2018-12-17T13:02:42.891Z,87.39
2018-12-17T13:05:11.947Z,87.34
2018-12-17T13:07:41.223Z,87.28
2018-12-17T13:10:11.228Z,87.31
2018-12-17T13:12:40.608Z,87.55
2018-12-17T13:15:10.667Z,88.07
2018-12-17T13:17:39.830Z,88.69
2018-12-17T13:20:10.199Z,87.41
2018-12-17T13:22:39.281Z,87.81
2018-12-17T13:25:12.997Z,89.04
2018-12-17T13:27:41.889Z,89.13
2018-12-17T13:30:11.296Z,90.46
2018-12-17T13:32:40.039Z,91.08
2018-12-17T13:35:09.879Z,91.82
2018-12-17T13:37:39.067Z,91.67
2018-12-17T13:40:09.927Z,91.33
2018-12-17T13:42:39.117Z,91.55
2018-12-17T13:45:08.068Z,91.63
2018-12-17T13:47:37.111Z,91.09
2018-12-17T13:50:41.691Z,89.55
2018-12-17T13:53:15.950Z,89.84
2018-12-17T13:55:45.144Z,89.98
2018-12-17T13:58:14.356Z,90.67
2018-12-17T14:00:43.431Z,90.02
2018-12-17T14:03:12.562Z,90.43
2018-12-17T14:05:41.721Z,90.30
2018-12-17T14:08:10.491Z,90.41
2018-12-17T14:10:44.304Z,90.46
2018-12-17T14:13:13.229Z,90.26
2018-12-17T14:15:48.150Z,90.52
2018-12-17T14:18:22.395Z,91.29
2018-12-17T14:20:56.662Z,91.84
2018-12-17T14:23:25.446Z,92.86
2018-12-17T14:25:54.207Z,93.44
2018-12-17T14:28:23.997Z,93.53
2018-12-17T14:30:52.930Z,94.28
2018-12-17T14:33:21.884Z,95.49
2018-12-17T14:35:56.073Z,95.71
2018-12-17T14:38:25.173Z,96.75
2018-12-17T14:40:53.925Z,95.64
2018-12-17T14:43:22.942Z,95.09
2018-12-17T14:45:52.092Z,94.67
2018-12-17T14:48:21.130Z,96.04
2018-12-17T14:50:50.350Z,96.45
2018-12-17T14:53:19.462Z,96.51
2018-12-17T14:55:48.606Z,95.67
2018-12-17T14:58:17.631Z,96.00
2018-12-17T15:00:47.281Z,95.96
2018-12-17T15:03:16.285Z,96.25
2018-12-17T15:05:45.139Z,96.00
2018-12-17T15:08:14.140Z,96.45
2018-12-17T15:10:43.201Z,96.77
2018-12-17T15:13:12.457Z,96.24
2018-12-17T15:15:41.203Z,94.15
2018-12-17T15:18:10.192Z,92.98
2018-12-17T15:20:39.027Z,93.56
2018-12-17T15:23:07.807Z,92.60
2018-12-17T15:25:36.868Z,93.07
2018-12-17T15:28:05.560Z,95.34
2018-12-17T15:30:35.486Z,92.47
2018-12-17T15:33:04.462Z,91.36
2018-12-17T15:35:33.483Z,92.42
2018-12-17T15:38:02.456Z,92.65
2018-12-17T15:40:31.845Z,92.22
2018-12-17T15:43:00.558Z,92.92
2018-12-17T15:45:29.314Z,92.93
2018-12-17T15:47:58.321Z,93.09
2018-12-17T15:50:27.206Z,93.22
2018-12-17T15:52:56.110Z,93.12
2018-12-17T15:55:24.956Z,93.15
2018-12-17T15:57:53.898Z,93.13
2018-12-17T16:00:22.814Z,93.89
2018-12-17T16:02:51.576Z,93.12
2018-12-17T16:05:20.561Z,91.75
2018-12-17T16:07:49.644Z,92.89
2018-12-17T16:10:18.526Z,93.82
2018-12-17T16:12:47.375Z,93.94
2018-12-17T16:15:27.191Z,92.52
2018-12-17T16:17:55.898Z,92.43
2018-12-17T16:20:24.676Z,93.04
2018-12-17T16:22:53.747Z,92.35
2018-12-17T16:25:22.606Z,91.46
2018-12-17T16:27:51.426Z,92.58
2018-12-17T16:30:20.573Z,91.94
2018-12-17T16:32:49.857Z,91.79
2018-12-17T16:35:18.952Z,91.91
2018-12-17T16:37:47.830Z,91.11
2018-12-17T16:40:16.622Z,90.89
2018-12-17T16:42:45.624Z,91.12
2018-12-17T16:45:14.752Z,92.19
2018-12-17T16:47:43.884Z,92.29
2018-12-17T16:50:12.715Z,92.32
2018-12-17T16:52:41.486Z,92.60
2018-12-17T16:55:10.569Z,92.71
2018-12-17T16:57:39.508Z,93.21
2018-12-17T17:00:10.065Z,93.96
2018-12-17T17:02:39.017Z,93.35
2018-12-17T17:05:08.121Z,93.74
2018-12-17T17:07:37.827Z,94.07
2018-12-17T17:10:09.061Z,94.58
2018-12-17T17:12:38.271Z,93.73
2018-12-17T17:15:10.557Z,94.20
2018-12-17T17:17:39.362Z,93.85
2018-12-17T17:20:09.683Z,94.38
2018-12-17T17:22:38.611Z,94.68
2018-12-17T17:25:07.596Z,95.26
2018-12-17T17:27:36.403Z,94.66
2018-12-17T17:30:05.991Z,94.95
2018-12-17T17:32:34.923Z,94.75
2018-12-17T17:35:04.145Z,94.91
2018-12-17T17:37:32.904Z,95.11
2018-12-17T17:40:01.931Z,95.00
2018-12-17T17:42:31.430Z,95.13
2018-12-17T17:45:00.327Z,95.29
2018-12-17T17:47:29.121Z,95.27
2018-12-17T17:49:57.914Z,96.04
2018-12-17T17:52:27.122Z,96.20
2018-12-17T17:54:55.793Z,96.33
2018-12-17T17:57:24.773Z,96.16
2018-12-17T17:59:53.474Z,96.36
2018-12-17T18:02:22.491Z,95.98
2018-12-17T18:04:51.434Z,96.04
2018-12-17T18:07:20.483Z,95.94
2018-12-17T18:09:49.438Z,96.10
2018-12-17T18:12:18.227Z,96.28
2018-12-17T18:14:47.272Z,96.50
2018-12-17T18:17:15.937Z,96.37
2018-12-17T18:19:44.763Z,95.36
2018-12-17T18:22:13.598Z,95.20
2018-12-17T18:24:42.706Z,95.23
2018-12-17T18:27:11.659Z,96.19
2018-12-17T18:29:40.816Z,96.47
2018-12-17T18:32:09.660Z,96.30
2018-12-17T18:34:38.312Z,96.50
2018-12-17T18:37:07.358Z,97.86
2018-12-17T18:39:36.389Z,96.91
2018-12-17T18:42:05.308Z,97.58
2018-12-17T18:44:34.553Z,97.47
2018-12-17T18:47:03.695Z,97.14
2018-12-17T18:49:32.583Z,97.37
2018-12-17T18:52:01.607Z,97.83
2018-12-17T18:54:30.670Z,97.75
2018-12-17T18:56:59.465Z,98.00
2018-12-17T18:59:28.246Z,97.62
2018-12-17T19:01:57.163Z,96.99
2018-12-17T19:04:26.112Z,98.10
2018-12-17T19:06:54.985Z,98.52
2018-12-17T19:09:23.932Z,97.97
2018-12-17T19:11:53.020Z,98.37
2018-12-17T19:14:21.934Z,97.94
2018-12-17T19:16:50.835Z,98.29
2018-12-17T19:19:20.282Z,97.93
2018-12-17T19:21:49.108Z,98.55
2018-12-17T19:24:17.908Z,99.76
2018-12-17T19:26:46.957Z,98.57
2018-12-17T19:29:15.736Z,98.29
2018-12-17T19:31:44.598Z,98.87
2018-12-17T19:34:13.286Z,99.02
2018-12-17T19:36:42.357Z,98.95
2018-12-17T19:39:11.377Z,99.63
2018-12-17T19:41:40.101Z,100.00
2018-12-17T19:44:09.111Z,99.90
2018-12-17T19:46:37.909Z,100.00
2018-12-17T19:49:06.823Z,99.66
2018-12-17T19:51:35.728Z,98.17
2018-12-17T19:54:04.663Z,97.56
2018-12-17T19:56:33.651Z,96.33
2018-12-17T19:59:02.373Z,96.23
2018-12-17T20:01:31.150Z,96.10
2018-12-17T20:04:00.305Z,95.98
2018-12-17T20:06:29.053Z,96.63
2018-12-17T20:08:58.003Z,96.49
2018-12-17T20:11:26.914Z,97.03
2018-12-17T20:13:55.911Z,96.98
2018-12-17T20:16:24.829Z,97.18
2018-12-17T20:18:53.795Z,97.68
2018-12-17T20:21:22.930Z,97.87
2018-12-17T20:23:52.287Z,97.33
2018-12-17T20:26:20.975Z,97.71
2018-12-17T20:28:50.219Z,98.26
2018-12-17T20:31:19.129Z,98.02
2018-12-17T20:33:48.196Z,97.45
2018-12-17T20:36:17.033Z,98.32
2018-12-17T20:38:46.115Z,98.85
2018-12-17T20:41:15.109Z,99.14
2018-12-17T20:43:43.959Z,98.94
2018-12-17T20:46:12.963Z,99.42
2018-12-17T20:48:41.720Z,99.55
2018-12-17T20:51:11.306Z,99.48
2018-12-17T20:53:40.683Z,99.66
2018-12-17T20:56:09.586Z,99.70
2018-12-17T20:58:38.298Z,99.37
2018-12-17T21:01:07.305Z,99.25
2018-12-17T21:03:36.479Z,99.32
2018-12-17T21:06:05.175Z,98.93
2018-12-17T21:08:34.155Z,98.79
2018-12-17T21:11:03.144Z,99.86
2018-12-17T21:13:31.914Z,100.00
2018-12-17T21:16:00.847Z,99.44
2018-12-17T21:18:29.696Z,98.75
2018-12-17T21:20:58.413Z,99.13
2018-12-17T21:23:27.807Z,99.78
2018-12-17T21:25:56.684Z,100.00
2018-12-17T21:28:25.804Z,100.00
2018-12-17T21:30:54.591Z,100.00
2018-12-17T21:33:23.722Z,99.81
2018-12-17T21:35:52.879Z,99.85
2018-12-17T21:38:21.572Z,100.00
2018-12-17T21:40:50.264Z,99.91
2018-12-17T21:43:19.351Z,100.00
2018-12-17T21:45:48.339Z,100.00
2018-12-17T21:48:17.214Z,99.54
2018-12-17T21:50:46.257Z,99.14
2018-12-17T21:53:15.429Z,98.56
2018-12-17T21:55:44.509Z,98.96
2018-12-17T21:58:13.618Z,99.01
2018-12-17T22:00:42.322Z,99.24
2018-12-17T22:03:13.336Z,99.05
2018-12-17T22:05:42.547Z,99.86
2018-12-17T22:08:11.268Z,100.00
2018-12-17T22:10:40.420Z,99.22
2018-12-17T22:13:09.198Z,99.89
2018-12-17T22:15:37.927Z,99.88
2018-12-17T22:18:06.856Z,99.97
2018-12-17T22:20:35.894Z,100.00
2018-12-17T22:23:04.726Z,99.82
2018-12-17T22:25:33.781Z,99.34
2018-12-17T22:28:02.540Z,99.27
2018-12-17T22:30:31.657Z,99.49
2018-12-17T22:33:00.654Z,99.30
2018-12-17T22:35:29.419Z,99.04
2018-12-17T22:37:58.437Z,98.34
2018-12-17T22:40:27.799Z,99.41
2018-12-17T22:42:56.869Z,98.93
2018-12-17T22:45:25.643Z,98.91
2018-12-17T22:47:54.710Z,98.55
2018-12-17T22:50:23.843Z,98.10
2018-12-17T22:52:53.128Z,98.42
2018-12-17T22:55:22.096Z,98.42
2018-12-17T22:57:51.190Z,98.93
2018-12-17T23:00:20.936Z,98.64
2018-12-17T23:02:49.906Z,98.39
2018-12-17T23:05:18.902Z,98.01
2018-12-17T23:07:48.055Z,98.09
2018-12-17T23:10:27.762Z,98.35
2018-12-17T23:13:07.336Z,97.63
2018-12-17T23:15:47.227Z,97.66
2018-12-17T23:18:14.894Z,97.71
2018-12-17T23:20:44.395Z,97.91
2018-12-17T23:23:13.413Z,98.06
2018-12-17T23:25:42.183Z,98.39
2018-12-17T23:28:11.378Z,98.87
2018-12-17T23:30:40.503Z,99.00
2018-12-17T23:33:09.212Z,98.43
2018-12-17T23:35:37.936Z,98.66
2018-12-17T23:38:07.139Z,98.39
2018-12-17T23:40:35.822Z,98.35
2018-12-17T23:43:05.029Z,99.02
2018-12-17T23:45:33.950Z,98.70
2018-12-17T23:48:03.133Z,98.59
2018-12-17T23:50:31.847Z,98.66
2018-12-17T23:53:01.025Z,99.22
2018-12-17T23:55:33.137Z,99.19
2018-12-17T23:58:01.947Z,99.60
